Donaldson, Kentucky
Current Conditions -  °F | °C
As of 7:58 PM on Friday 28 Nov 2014 (Local Time) from KHOP Reporting Station
Clear Clear  
Wind Chill: 37°   Ceiling: Unl
Heat Index: 43°   Visibility: 10mi
Dew Point: 24°   Wind: 10mph
Humidity: 48%   Direction: 180°S
Pressure: 30.1"   Gusts: NA
Location:  36.8031°N, 87.8159°W
Report Text: KHOP 290158Z AUTO 18009KT 10SM CLR 06/M04 A3010 RMK AO2 SLP199 T00601043 $
Loading
Personal Weather Stations






























Interactive Weather Map New forecast layout! Learn more

10-Day Weather Forecast

Advertisements
Track Severe Weather on mobile